Thursday, November 15, 2018, 8:12 PM EST
Back to Local

KHUL, Houlton Int'l Airport

Location: Houlton, ME, United States Lat: 46.117
Local Time: 8:12 PM EST ( 1:12 GMT) Lon: -67.8
Time Zone: US/Eastern Elev: 492 ft

Show me the last for .
Show Decoded

2018-11-15 19:53 METAR KHUL 160053Z AUTO 00000KT 10SM CLR M11/M12 A3040 RMK AO2 SLP306 T11061117
                 =
2018-11-15 18:53 METAR KHUL 152353Z AUTO 00000KT 10SM CLR M11/M11 A3040 RMK AO2 SLP307 T11061111
                 11050 21106 57019 =
2018-11-15 17:53 METAR KHUL 152253Z AUTO 00000KT 10SM CLR M09/M11 A3042 RMK AO2 SLP315 T10941106
                 =
2018-11-15 16:53 METAR KHUL 152153Z AUTO 00000KT 10SM CLR M08/M11 A3044 RMK AO2 SLP319 T10831106
                 =
2018-11-15 15:53 METAR KHUL 152053Z AUTO 19004KT 10SM CLR M06/M11 A3046 RMK AO2 SLP326 T10611106
                 55005 =
2018-11-15 14:53 METAR KHUL 151953Z AUTO 24005KT 10SM CLR M05/M12 A3045 RMK AO2 SLP321 T10501122
                 =
2018-11-15 13:53 METAR KHUL 151853Z AUTO 27004KT 10SM CLR M05/M13 A3044 RMK AO2 SLP317 T10501128
                 =
2018-11-15 12:53 METAR KHUL 151753Z AUTO 27005KT 10SM CLR M05/M13 A3047 RMK AO2 SLP330 T10501133
                 11050 21161 56005 =
2018-11-15 11:53 METAR KHUL 151653Z AUTO VRB06KT 10SM CLR M06/M13 A3047 RMK AO2 SLP330 T10611133
                 =
2018-11-15 10:53 METAR KHUL 151553Z AUTO 36007KT 10SM CLR M07/M14 A3047 RMK AO2 SLP331 T10721139
                 =
2018-11-15 09:53 METAR KHUL 151453Z AUTO 32004KT 10SM CLR M08/M14 A3049 RMK AO2 SLP337 T10831144
                 55007 =
2018-11-15 08:53 METAR KHUL 151353Z AUTO 32006KT 10SM CLR M11/M16 A3049 RMK AO2 SLP336 T11061156
                 =
2018-11-15 07:53 METAR KHUL 151253Z AUTO 03003KT 10SM CLR M14/M17 A3051 RMK AO2 SLP344 T11391167
                 =
2018-11-15 06:53 METAR KHUL 151153Z AUTO 00000KT 10SM CLR M15/M17 A3051 RMK AO2 SLP345 T11501172
                 11111 21150 51022 =
2018-11-15 05:53 METAR KHUL 151053Z AUTO 28005KT 10SM CLR M14/M17 A3050 RMK AO2 SLP341 T11391167
                 =
2018-11-15 04:53 METAR KHUL 150953Z AUTO 29005KT 10SM CLR M12/M17 A3047 RMK AO2 SLP330 T11221167
                 =
2018-11-15 03:53 METAR KHUL 150853Z AUTO 30005KT 10SM CLR M12/M16 A3045 RMK AO2 SLP322 T11221161
                 51026 =
2018-11-15 02:53 METAR KHUL 150753Z AUTO 30006KT 10SM CLR M12/M16 A3042 RMK AO2 SLP314 T11171161
                 =
2018-11-15 01:53 METAR KHUL 150653Z AUTO 32008KT 10SM CLR M12/M16 A3040 RMK AO2 SLP305 T11171156
                 =
2018-11-15 00:53 METAR KHUL 150553Z AUTO 30010G16KT 10SM CLR M11/M16 A3037 RMK AO2 SLP296
                 T11111156 11106 21117 51043 =
2018-11-14 23:53 METAR KHUL 150453Z AUTO 27005KT 10SM CLR M11/M16 A3034 RMK AO2 SLP286 T11111156
                 400061117 =
2018-11-14 22:53 METAR KHUL 150353Z AUTO 28009KT 10SM CLR M11/M16 A3028 RMK AO2 SLP266 T11061156
                 =
2018-11-14 21:53 METAR KHUL 150253Z AUTO 29008KT 10SM CLR M11/M16 A3024 RMK AO2 SLP252 T11061156
                 50022 =
2018-11-14 20:53 METAR KHUL 150153Z AUTO 28010G17KT 10SM CLR M11/M16 A3024 RMK AO2 SLP253
                 T11061156 =

Support USWX by starting your Amazon purchase here.